Time;durP1;ratioP1;P1;durP2;ratioP2;P2;SDS_P1;SDS_P2;PMS_P1;PMS_P2;Temp;Humidity;BMP_temperature;BMP_pressure;BME280_temperature;BME280_humidity;BME280_pressure;Samples;Min_cycle;Max_cycle;Signal;HPM_P1;HPM_P2
2021/07/24 00:00:09;;;;;;;12.57;9.35;;;23.40;57.80;;;;;;5168397;27;27515;-60
2021/07/24 00:02:54;;;;;;;12.82;9.70;;;23.40;57.90;;;;;;5187437;27;27601;-60
2021/07/24 00:05:39;;;;;;;12.07;8.73;;;23.30;58.00;;;;;;5188008;27;27406;-60
2021/07/24 00:08:23;;;;;;;10.75;8.75;;;23.40;58.00;;;;;;5172375;27;27405;-59
2021/07/24 00:11:09;;;;;;;10.13;9.02;;;23.30;58.20;;;;;;5172337;27;27481;-61
2021/07/24 00:13:54;;;;;;;14.80;9.15;;;23.30;58.10;;;;;;5157501;27;27486;-60
2021/07/24 00:16:38;;;;;;;11.02;8.77;;;23.30;58.10;;;;;;5157233;27;27407;-60
2021/07/24 00:19:23;;;;;;;11.00;8.98;;;23.20;58.30;;;;;;5187380;27;27442;-59
2021/07/24 00:22:07;;;;;;;10.73;8.45;;;23.20;58.30;;;;;;5171916;27;27479;-60
2021/07/24 00:24:53;;;;;;;12.27;9.10;;;23.20;59.00;;;;;;5187807;27;27466;-60
2021/07/24 00:27:37;;;;;;;11.10;9.23;;;23.20;58.40;;;;;;5187587;27;27421;-60
2021/07/24 00:30:22;;;;;;;11.50;8.57;;;23.20;58.50;;;;;;5171290;27;26875;-60
2021/07/24 00:33:11;;;;;;;10.15;8.30;;;23.10;58.30;;;;;;5168282;27;27399;-59
2021/07/24 00:35:56;;;;;;;11.07;9.40;;;23.10;58.40;;;;;;5187684;27;27485;-60
2021/07/24 00:38:41;;;;;;;10.82;8.45;;;23.10;58.40;;;;;;5171827;27;27414;-60
2021/07/24 00:41:30;;;;;;;12.00;8.77;;;23.00;58.30;;;;;;5153750;27;27373;-60
2021/07/24 00:44:16;;;;;;;11.02;8.38;;;23.00;58.60;;;;;;5187441;27;27382;-61
2021/07/24 00:47:01;;;;;;;17.13;10.00;;;23.00;58.60;;;;;;5168419;27;27388;-60
2021/07/24 00:49:46;;;;;;;10.27;9.10;;;23.00;58.60;;;;;;5138830;27;27316;-60
2021/07/24 00:52:31;;;;;;;12.75;9.52;;;22.90;58.70;;;;;;5153539;27;27372;-59
2021/07/24 00:55:16;;;;;;;15.77;9.10;;;22.90;58.80;;;;;;5186988;27;27380;-60
2021/07/24 00:58:24;;;;;;;12.10;9.27;;;22.90;59.00;;;;;;5186714;27;27312;-60
2021/07/24 01:01:09;;;;;;;11.70;9.45;;;22.90;59.10;;;;;;5172555;27;27488;-60
2021/07/24 01:03:55;;;;;;;11.50;8.63;;;22.80;58.90;;;;;;5153333;27;27519;-60
2021/07/24 01:06:44;;;;;;;10.25;8.48;;;22.80;58.90;;;;;;5187107;27;27971;-60
2021/07/24 01:09:31;;;;;;;12.82;8.95;;;22.80;58.80;;;;;;5182854;27;27357;-60
2021/07/24 01:12:16;;;;;;;10.38;8.85;;;22.80;59.00;;;;;;5186234;27;27405;-60
2021/07/24 01:15:04;;;;;;;11.10;8.90;;;22.70;59.00;;;;;;5186883;27;27346;-59
2021/07/24 01:17:50;;;;;;;14.77;8.57;;;22.70;59.00;;;;;;5182748;27;27480;-60
2021/07/24 01:20:35;;;;;;;11.27;9.20;;;22.60;59.00;;;;;;5167486;27;27590;-60
2021/07/24 01:23:20;;;;;;;11.73;8.98;;;22.60;59.10;;;;;;5146926;27;27434;-60
2021/07/24 01:26:07;;;;;;;14.73;9.80;;;22.60;59.20;;;;;;5105844;27;27438;-59
2021/07/24 01:28:54;;;;;;;13.07;10.18;;;22.60;59.20;;;;;;5132426;27;27404;-60
2021/07/24 01:31:39;;;;;;;20.92;10.02;;;22.60;59.10;;;;;;5165518;27;27339;-60
2021/07/24 01:34:25;;;;;;;12.35;9.70;;;22.50;59.30;;;;;;5132393;27;27307;-60
2021/07/24 01:37:10;;;;;;;13.57;9.77;;;22.50;59.30;;;;;;5150161;27;27397;-59
2021/07/24 01:39:55;;;;;;;12.68;9.35;;;22.50;59.40;;;;;;5149723;27;27396;-59
2021/07/24 01:42:41;;;;;;;14.23;9.52;;;22.50;59.40;;;;;;5146304;27;27421;-59
2021/07/24 01:45:27;;;;;;;13.05;10.57;;;22.50;59.30;;;;;;5165433;27;27457;-58
2021/07/24 01:48:16;;;;;;;10.63;8.70;;;22.40;59.40;;;;;;5165805;27;27384;-58
2021/07/24 01:54:10;;;;;;;11.45;8.98;;;22.40;59.70;;;;;;5164576;27;27402;-58
2021/07/24 01:56:55;;;;;;;12.25;9.25;;;22.30;60.50;;;;;;5136153;27;27321;-58
2021/07/24 01:59:44;;;;;;;12.98;9.70;;;22.30;59.80;;;;;;5146314;27;27467;-58
2021/07/24 02:02:29;;;;;;;11.68;9.13;;;22.30;60.00;;;;;;5132147;27;27515;-58
2021/07/24 02:05:44;;;;;;;12.77;9.60;;;22.30;59.80;;;;;;5128939;27;27424;-58
2021/07/24 02:08:29;;;;;;;12.48;9.07;;;22.30;60.10;;;;;;5143594;27;27402;-58
2021/07/24 02:11:14;;;;;;;11.40;8.90;;;22.30;60.10;;;;;;5135075;27;27106;-58
2021/07/24 02:13:59;;;;;;;14.40;10.38;;;22.20;60.00;;;;;;5131779;27;27415;-58
2021/07/24 02:16:44;;;;;;;10.55;9.07;;;22.20;60.00;;;;;;5164856;27;27465;-58
2021/07/24 02:19:32;;;;;;;15.57;9.23;;;22.20;60.20;;;;;;5155658;27;27473;-58
2021/07/24 02:22:17;;;;;;;11.38;9.52;;;22.20;60.30;;;;;;5152338;27;27386;-58
2021/07/24 02:25:10;;;;;;;11.60;9.38;;;22.20;60.40;;;;;;5170788;27;27435;-58
2021/07/24 02:27:55;;;;;;;11.35;8.80;;;22.20;60.60;;;;;;5170323;27;27397;-58
2021/07/24 02:30:39;;;;;;;12.70;10.00;;;22.20;60.80;;;;;;5155939;27;27413;-58
2021/07/24 02:33:24;;;;;;;14.00;9.05;;;22.10;60.60;;;;;;5170383;27;27465;-59
2021/07/24 02:36:10;;;;;;;13.85;10.52;;;22.10;61.10;;;;;;5155810;27;27471;-58
2021/07/24 02:38:54;;;;;;;13.65;9.38;;;22.20;61.40;;;;;;5155333;27;27489;-58
2021/07/24 02:41:39;;;;;;;14.85;9.77;;;22.10;61.30;;;;;;5170041;27;27406;-59
2021/07/24 02:44:24;;;;;;;13.73;10.10;;;22.10;61.10;;;;;;5170252;27;27401;-58
2021/07/24 02:47:09;;;;;;;14.55;8.50;;;22.20;61.10;;;;;;5170807;27;27600;-58
2021/07/24 02:49:56;;;;;;;12.00;9.63;;;22.10;61.40;;;;;;5169702;27;27427;-59
2021/07/24 02:52:41;;;;;;;12.60;9.30;;;22.10;61.10;;;;;;5189438;27;27480;-59
2021/07/24 02:55:26;;;;;;;9.55;8.35;;;22.10;61.40;;;;;;5169982;27;27492;-58
2021/07/24 02:58:10;;;;;;;11.70;8.70;;;22.20;61.30;;;;;;5154984;27;27418;-59
2021/07/24 03:00:55;;;;;;;12.13;9.15;;;22.20;61.50;;;;;;5158529;27;27534;-58
2021/07/24 03:03:40;;;;;;;13.65;9.68;;;22.10;61.30;;;;;;5189278;27;27471;-59
2021/07/24 03:06:24;;;;;;;11.25;9.52;;;22.10;61.60;;;;;;5172803;27;27534;-58
2021/07/24 03:09:11;;;;;;;11.20;8.88;;;22.10;61.60;;;;;;5172645;27;28386;-59
2021/07/24 03:11:55;;;;;;;12.85;9.27;;;22.10;61.70;;;;;;5173453;27;27495;-58
2021/07/24 03:14:40;;;;;;;11.27;9.30;;;22.10;61.70;;;;;;5171024;27;27491;-59
2021/07/24 03:17:26;;;;;;;12.73;9.45;;;22.10;61.70;;;;;;5188949;27;27391;-59
2021/07/24 03:20:11;;;;;;;13.23;9.00;;;22.10;61.70;;;;;;5172649;27;27422;-59
2021/07/24 03:22:59;;;;;;;11.13;9.00;;;22.10;61.80;;;;;;5169351;27;27617;-59
2021/07/24 03:25:44;;;;;;;13.50;9.63;;;22.10;61.90;;;;;;5188919;27;27396;-59
2021/07/24 03:28:28;;;;;;;12.25;9.95;;;22.10;62.00;;;;;;5188768;27;27401;-59
2021/07/24 03:31:13;;;;;;;14.15;11.10;;;22.10;62.00;;;;;;5172805;27;27354;-58
2021/07/24 03:33:57;;;;;;;15.25;10.65;;;22.10;62.00;;;;;;5172349;27;27444;-59
2021/07/24 03:36:42;;;;;;;13.05;10.90;;;22.10;62.10;;;;;;5188423;27;27347;-58
2021/07/24 03:39:27;;;;;;;18.05;11.50;;;22.10;62.10;;;;;;5187805;27;27414;-58
2021/07/24 03:42:11;;;;;;;15.38;11.30;;;22.10;62.00;;;;;;5188262;27;27562;-59
2021/07/24 03:44:56;;;;;;;20.25;11.27;;;22.10;62.20;;;;;;5188409;27;27488;-58
2021/07/24 03:47:40;;;;;;;15.25;12.05;;;22.00;62.30;;;;;;5188270;27;27422;-59
2021/07/24 03:50:25;;;;;;;16.33;11.45;;;22.10;62.50;;;;;;5188456;27;27388;-59
2021/07/24 03:53:09;;;;;;;16.65;10.60;;;22.00;62.30;;;;;;5172281;27;27881;-59
2021/07/24 03:55:54;;;;;;;15.93;11.02;;;22.00;62.40;;;;;;5188213;27;27442;-58
2021/07/24 03:58:39;;;;;;;14.73;11.50;;;22.00;62.40;;;;;;5188140;27;27480;-59
2021/07/24 04:01:26;;;;;;;13.70;11.50;;;22.00;62.30;;;;;;5188132;27;27459;-59
2021/07/24 04:04:12;;;;;;;16.70;12.10;;;22.00;62.70;;;;;;5188163;27;27892;-59
2021/07/24 04:06:57;;;;;;;13.55;11.50;;;22.00;62.40;;;;;;5155860;27;27425;-59
2021/07/24 04:09:42;;;;;;;14.38;10.73;;;22.00;62.50;;;;;;5172334;27;27449;-59
2021/07/24 04:12:27;;;;;;;14.27;10.75;;;22.00;62.80;;;;;;5157623;27;27406;-59
2021/07/24 04:15:12;;;;;;;12.80;10.60;;;22.00;63.20;;;;;;5187698;27;27960;-59
2021/07/24 04:17:58;;;;;;;15.68;11.35;;;22.00;62.80;;;;;;5172003;27;27468;-58
2021/07/24 04:20:43;;;;;;;14.13;10.30;;;22.00;63.10;;;;;;5186886;27;27408;-58
2021/07/24 04:23:27;;;;;;;13.98;10.77;;;22.00;63.20;;;;;;5168595;27;27409;-59
2021/07/24 04:26:12;;;;;;;11.95;10.07;;;22.00;63.10;;;;;;5187632;27;27399;-59
2021/07/24 04:28:58;;;;;;;15.05;10.15;;;22.00;63.20;;;;;;5157117;27;27497;-59
2021/07/24 04:31:42;;;;;;;13.30;10.85;;;22.00;63.50;;;;;;5171947;27;27342;-59
2021/07/24 04:34:29;;;;;;;14.02;10.13;;;22.00;63.40;;;;;;5171270;27;27446;-59
2021/07/24 04:37:13;;;;;;;15.05;10.93;;;21.90;63.70;;;;;;5153707;27;27438;-59
2021/07/24 04:39:58;;;;;;;15.48;10.75;;;21.90;63.50;;;;;;5187086;27;27416;-59
2021/07/24 04:42:42;;;;;;;13.63;10.02;;;21.90;63.50;;;;;;5157006;27;27420;-59
2021/07/24 04:45:27;;;;;;;13.63;10.52;;;21.90;63.90;;;;;;5166952;27;27418;-59
2021/07/24 04:48:12;;;;;;;13.23;10.57;;;21.90;63.50;;;;;;5187267;27;27412;-59
2021/07/24 04:50:57;;;;;;;14.68;10.18;;;21.90;63.80;;;;;;5171621;27;27402;-59
2021/07/24 04:53:43;;;;;;;17.27;11.52;;;21.90;63.70;;;;;;5171629;27;27488;-59
2021/07/24 04:56:28;;;;;;;19.15;10.65;;;21.90;64.10;;;;;;5157240;27;27342;-59
2021/07/24 04:59:12;;;;;;;17.50;10.13;;;21.90;63.70;;;;;;5186744;27;27355;-59
2021/07/24 05:01:57;;;;;;;14.98;11.00;;;21.90;63.80;;;;;;5186965;27;27441;-58
2021/07/24 05:04:45;;;;;;;14.88;11.40;;;21.90;64.40;;;;;;5187002;27;27499;-59
2021/07/24 05:07:31;;;;;;;13.73;10.48;;;22.00;64.50;;;;;;5187267;27;27355;-59
2021/07/24 05:10:16;;;;;;;15.32;10.88;;;22.00;64.30;;;;;;5171438;27;27378;-59
2021/07/24 05:13:00;;;;;;;14.05;10.70;;;22.00;63.80;;;;;;5187088;27;27335;-59
2021/07/24 05:15:45;;;;;;;15.77;11.13;;;22.10;64.90;;;;;;5168118;27;27366;-59
2021/07/24 05:18:30;;;;;;;14.77;10.68;;;22.10;64.50;;;;;;5186583;27;27373;-59
2021/07/24 05:21:16;;;;;;;18.60;11.98;;;22.20;64.40;;;;;;5171221;27;27533;-58
2021/07/24 05:24:00;;;;;;;16.33;11.27;;;22.20;64.40;;;;;;5171333;27;27544;-58
2021/07/24 05:26:45;;;;;;;19.73;12.35;;;22.20;64.40;;;;;;5170373;27;27395;-59
2021/07/24 05:29:30;;;;;;;13.23;11.13;;;22.20;64.20;;;;;;5186818;27;27329;-59
2021/07/24 05:32:14;;;;;;;16.50;11.73;;;22.30;64.60;;;;;;5186823;27;27340;-58
2021/07/24 05:34:59;;;;;;;16.95;12.60;;;22.30;63.90;;;;;;5186604;27;27423;-59
2021/07/24 05:37:44;;;;;;;18.40;13.45;;;22.30;64.40;;;;;;5186609;27;27396;-58
2021/07/24 05:40:28;;;;;;;16.02;11.35;;;22.30;64.10;;;;;;5186365;27;27405;-59
2021/07/24 05:43:13;;;;;;;16.70;12.95;;;22.30;63.90;;;;;;5152841;27;27394;-57
2021/07/24 05:46:01;;;;;;;18.33;12.95;;;22.30;64.70;;;;;;5152679;27;27335;-58
2021/07/24 05:48:46;;;;;;;17.88;11.95;;;22.30;64.80;;;;;;5156200;27;27409;-58
2021/07/24 05:51:30;;;;;;;19.00;10.82;;;22.30;65.70;;;;;;5186611;27;27389;-58
2021/07/24 05:54:17;;;;;;;17.05;11.32;;;22.30;64.80;;;;;;5170494;27;27615;-59
2021/07/24 05:57:04;;;;;;;19.20;11.82;;;22.30;65.10;;;;;;5172133;27;27522;-58
2021/07/24 05:59:49;;;;;;;13.85;11.07;;;22.30;64.90;;;;;;5189877;27;27412;-58
2021/07/24 06:02:34;;;;;;;18.27;12.75;;;22.30;65.00;;;;;;5174174;27;27374;-58
2021/07/24 06:05:19;;;;;;;14.70;11.65;;;22.40;65.00;;;;;;5174382;27;27462;-59
2021/07/24 06:08:04;;;;;;;16.33;11.80;;;22.40;65.20;;;;;;5174001;27;27494;-59
2021/07/24 06:10:49;;;;;;;13.65;11.05;;;22.40;65.20;;;;;;5189791;27;27479;-58
2021/07/24 06:13:33;;;;;;;18.30;12.75;;;22.40;65.40;;;;;;5190062;27;26984;-59
2021/07/24 06:16:18;;;;;;;17.23;12.38;;;22.50;65.40;;;;;;5189998;27;27426;-59
2021/07/24 06:19:02;;;;;;;18.10;12.18;;;22.50;65.20;;;;;;5173544;27;27604;-59
2021/07/24 06:21:47;;;;;;;15.98;12.77;;;22.50;65.40;;;;;;5189468;27;27734;-59
2021/07/24 06:24:32;;;;;;;16.10;11.27;;;22.50;65.40;;;;;;5189777;27;27385;-59
2021/07/24 06:27:17;;;;;;;17.50;13.07;;;22.60;65.60;;;;;;5174092;27;27358;-59
2021/07/24 06:30:01;;;;;;;18.17;12.18;;;22.60;65.70;;;;;;5189500;27;27351;-59
2021/07/24 06:32:46;;;;;;;17.20;12.40;;;22.60;65.70;;;;;;5189514;27;27327;-59
2021/07/24 06:35:30;;;;;;;21.25;13.75;;;22.60;65.40;;;;;;5189492;27;27376;-59
2021/07/24 06:38:15;;;;;;;13.60;11.48;;;22.60;65.40;;;;;;5189586;27;27319;-59
2021/07/24 06:41:03;;;;;;;16.45;12.73;;;22.60;64.70;;;;;;5173896;27;27516;-58
2021/07/24 06:43:48;;;;;;;19.85;12.57;;;22.70;64.90;;;;;;5189382;27;27479;-59
2021/07/24 06:46:32;;;;;;;17.67;11.80;;;22.70;64.70;;;;;;5189536;27;27441;-59
2021/07/24 06:49:17;;;;;;;17.38;11.35;;;22.70;65.20;;;;;;5188744;27;27996;-59
2021/07/24 06:52:02;;;;;;;14.35;11.93;;;22.70;64.90;;;;;;5189353;27;27319;-59
2021/07/24 06:54:48;;;;;;;14.27;12.00;;;22.80;65.10;;;;;;5170400;27;27328;-59
2021/07/24 06:57:33;;;;;;;17.60;12.75;;;22.80;65.70;;;;;;5189072;27;27460;-59
2021/07/24 07:00:18;;;;;;;17.08;12.77;;;22.90;65.30;;;;;;5155003;27;27837;-59
2021/07/24 07:03:03;;;;;;;20.88;12.45;;;22.90;65.70;;;;;;5173230;27;27528;-59
2021/07/24 07:05:49;;;;;;;19.00;12.38;;;23.00;65.10;;;;;;5169904;27;26910;-59
2021/07/24 07:08:34;;;;;;;20.60;13.18;;;22.90;65.00;;;;;;5188134;27;27391;-59
2021/07/24 07:11:20;;;;;;;19.13;13.00;;;23.00;65.00;;;;;;5188750;27;27479;-59
2021/07/24 07:14:05;;;;;;;16.08;11.90;;;23.00;65.50;;;;;;5188814;27;27441;-59
2021/07/24 07:16:50;;;;;;;18.50;13.60;;;22.90;65.40;;;;;;5188421;27;27415;-59
2021/07/24 07:19:36;;;;;;;18.27;14.00;;;22.90;65.60;;;;;;5188314;27;27386;-59
2021/07/24 07:22:20;;;;;;;20.58;13.40;;;22.90;65.60;;;;;;5158309;27;27474;-59
2021/07/24 07:25:05;;;;;;;16.42;13.13;;;23.00;65.90;;;;;;5188749;27;27508;-59
2021/07/24 07:27:50;;;;;;;22.73;13.35;;;23.00;66.00;;;;;;5188614;27;27421;-59
2021/07/24 07:30:35;;;;;;;19.33;13.20;;;23.00;66.10;;;;;;5188762;27;27388;-59
2021/07/24 07:33:20;;;;;;;15.75;13.23;;;23.10;66.10;;;;;;5154548;27;27422;-59
2021/07/24 07:36:05;;;;;;;18.48;12.38;;;23.20;66.30;;;;;;5173092;27;27515;-59
2021/07/24 07:38:49;;;;;;;15.00;12.50;;;23.20;66.40;;;;;;5189505;27;27406;-59
2021/07/24 07:41:34;;;;;;;18.10;12.77;;;23.20;66.50;;;;;;5189199;27;27391;-59
2021/07/24 07:44:21;;;;;;;16.58;12.25;;;23.30;66.60;;;;;;5173916;27;27422;-59
2021/07/24 07:47:05;;;;;;;17.80;12.45;;;23.30;66.40;;;;;;5186041;27;27440;-59
2021/07/24 07:49:51;;;;;;;17.70;13.60;;;23.40;66.50;;;;;;5173840;27;27484;-59
2021/07/24 07:52:35;;;;;;;14.90;12.10;;;23.40;66.60;;;;;;5189290;27;27466;-59
2021/07/24 07:55:20;;;;;;;18.58;12.48;;;23.40;66.40;;;;;;5188696;27;27445;-59
2021/07/24 07:58:11;;;;;;;15.00;12.25;;;23.40;66.80;;;;;;5173601;27;27516;-59
2021/07/24 08:00:56;;;;;;;19.25;12.00;;;23.40;66.40;;;;;;5188952;27;27325;-61
2021/07/24 08:03:41;;;;;;;18.77;13.23;;;23.40;67.50;;;;;;5158564;27;27425;-60
2021/07/24 08:06:25;;;;;;;16.67;12.90;;;23.40;67.20;;;;;;5172971;27;27393;-60
2021/07/24 08:09:10;;;;;;;17.13;12.07;;;23.50;67.50;;;;;;5173344;27;27342;-59
2021/07/24 08:11:55;;;;;;;17.27;11.98;;;23.50;67.40;;;;;;5188313;27;27412;-60
2021/07/24 08:14:40;;;;;;;15.10;11.48;;;23.60;67.50;;;;;;5188828;27;27381;-60
2021/07/24 08:17:25;;;;;;;17.00;12.73;;;23.60;67.70;;;;;;5188663;27;27338;-59
2021/07/24 08:20:10;;;;;;;18.27;12.02;;;23.70;68.20;;;;;;5171493;27;27531;-59
2021/07/24 08:22:55;;;;;;;17.67;12.95;;;23.80;68.30;;;;;;5188702;27;27413;-59
2021/07/24 08:25:43;;;;;;;14.88;12.23;;;23.90;68.90;;;;;;5172723;27;27346;-59
2021/07/24 08:28:28;;;;;;;19.17;11.68;;;24.00;69.20;;;;;;5188281;27;27422;-59
2021/07/24 08:31:16;;;;;;;17.05;12.68;;;24.10;69.40;;;;;;5188186;27;27487;-60
2021/07/24 08:34:01;;;;;;;22.23;14.82;;;24.20;68.40;;;;;;5188471;27;27483;-59
2021/07/24 08:36:46;;;;;;;19.70;12.25;;;24.20;69.10;;;;;;5188478;27;27386;-60
2021/07/24 08:39:31;;;;;;;18.67;12.05;;;24.30;69.10;;;;;;5171952;27;27882;-59
2021/07/24 08:42:47;;;;;;;17.98;11.23;;;24.40;69.20;;;;;;5188357;27;27478;-60
2021/07/24 08:45:33;;;;;;;17.58;11.60;;;24.60;69.20;;;;;;5128808;27;27595;-61
2021/07/24 08:48:18;;;;;;;16.88;11.82;;;24.80;70.10;;;;;;5188449;27;27441;-59
2021/07/24 08:51:02;;;;;;;16.02;11.23;;;25.00;68.60;;;;;;5158033;27;27488;-59
2021/07/24 08:53:47;;;;;;;17.85;10.82;;;25.20;68.10;;;;;;5188136;27;27436;-60
2021/07/24 08:56:34;;;;;;;19.55;11.82;;;25.30;66.60;;;;;;5188000;27;27414;-60
2021/07/24 08:59:19;;;;;;;17.75;11.02;;;25.50;65.70;;;;;;5171482;27;27460;-60
2021/07/24 09:02:04;;;;;;;13.43;10.80;;;25.70;65.40;;;;;;5172531;27;27409;-60
2021/07/24 09:04:53;;;;;;;15.13;10.57;;;25.90;66.00;;;;;;5188066;27;27400;-58
2021/07/24 09:08:00;;;;;;;11.57;9.68;;;26.10;65.70;;;;;;5172373;27;27432;-58
2021/07/24 09:10:47;;;;;;;11.45;9.85;;;26.50;64.70;;;;;;5172101;27;27421;-60
2021/07/24 09:13:31;;;;;;;13.32;10.27;;;27.00;65.40;;;;;;5172207;27;27525;-60
2021/07/24 09:16:16;;;;;;;11.15;9.05;;;27.40;64.80;;;;;;5172452;27;27532;-60
2021/07/24 09:19:01;;;;;;;12.68;9.80;;;27.80;63.80;;;;;;5187148;27;27471;-61
2021/07/24 09:21:46;;;;;;;12.43;9.13;;;28.20;61.60;;;;;;5187713;27;27441;-60
2021/07/24 09:24:31;;;;;;;11.85;9.43;;;28.50;61.30;;;;;;5187528;27;27406;-60
2021/07/24 09:27:23;;;;;;;11.75;8.18;;;28.80;60.50;;;;;;5187744;27;27483;-60
2021/07/24 09:30:11;;;;;;;9.32;8.15;;;29.00;59.60;;;;;;5172008;27;27465;-60
2021/07/24 09:33:06;;;;;;;11.55;8.15;;;29.30;58.70;;;;;;5156099;27;27464;-60
2021/07/24 09:35:53;;;;;;;10.02;8.85;;;29.50;58.00;;;;;;5175840;27;27960;-61
2021/07/24 09:38:39;;;;;;;11.43;8.63;;;29.70;57.90;;;;;;5175744;27;27543;-60
2021/07/24 09:41:24;;;;;;;10.23;7.93;;;29.80;55.50;;;;;;5176150;27;27397;-60
2021/07/24 09:44:09;;;;;;;10.95;7.75;;;29.70;55.20;;;;;;5191156;27;27375;-60
2021/07/24 09:46:55;;;;;;;12.15;8.18;;;29.70;55.30;;;;;;5175293;27;27363;-60
2021/07/24 09:49:41;;;;;;;14.27;8.73;;;29.80;55.30;;;;;;5191077;27;27376;-60
2021/07/24 09:52:26;;;;;;;9.98;7.45;;;29.90;55.60;;;;;;5191152;27;27383;-60
2021/07/24 09:55:17;;;;;;;12.00;8.05;;;29.80;54.10;;;;;;5191402;27;27408;-61
2021/07/24 09:58:02;;;;;;;11.27;7.03;;;29.70;55.30;;;;;;5191003;27;27445;-60
2021/07/24 10:00:47;;;;;;;10.00;7.70;;;29.60;53.90;;;;;;5190156;27;27434;-59
2021/07/24 10:03:35;;;;;;;13.68;9.25;;;29.60;54.50;;;;;;5175712;27;27488;-60
2021/07/24 10:06:20;;;;;;;12.82;7.93;;;29.70;54.30;;;;;;5191086;27;27340;-60
2021/07/24 10:09:04;;;;;;;13.75;7.43;;;29.80;53.60;;;;;;5175120;27;27355;-60
2021/07/24 10:11:51;;;;;;;14.05;8.13;;;29.70;51.20;;;;;;5160771;27;27591;-60
2021/07/24 10:14:36;;;;;;;12.18;7.47;;;29.60;52.00;;;;;;5160770;27;27406;-60
2021/07/24 10:17:21;;;;;;;10.38;7.28;;;29.50;52.40;;;;;;5160353;27;26874;-60
2021/07/24 10:20:07;;;;;;;12.77;6.68;;;29.40;51.80;;;;;;5190074;27;27395;-60
2021/07/24 10:22:51;;;;;;;9.93;6.55;;;29.40;53.50;;;;;;5190492;27;27351;-59
2021/07/24 10:25:49;;;;;;;9.70;6.90;;;29.60;52.70;;;;;;5190726;27;27371;-60
2021/07/24 10:28:39;;;;;;;11.38;7.43;;;29.60;53.20;;;;;;5190070;27;27405;-61
2021/07/24 10:31:42;;;;;;;8.18;7.03;;;29.80;54.30;;;;;;5190525;27;27325;-61
2021/07/24 10:34:31;;;;;;;11.43;7.72;;;30.00;54.00;;;;;;5190256;27;27456;-61
2021/07/24 10:37:33;;;;;;;9.95;6.82;;;30.30;52.80;;;;;;5174840;27;27425;-62
2021/07/24 10:43:05;;;;;;;9.52;7.55;;;30.40;50.30;;;;;;5189258;27;27473;-61
2021/07/24 10:45:50;;;;;;;18.27;8.02;;;30.60;52.20;;;;;;5174891;27;27404;-62
2021/07/24 10:48:44;;;;;;;8.23;6.70;;;30.70;50.40;;;;;;5174511;27;27447;-61
2021/07/24 10:51:29;;;;;;;10.43;7.70;;;30.80;51.50;;;;;;5190047;27;27331;-61
2021/07/24 10:54:14;;;;;;;12.18;8.07;;;30.90;50.80;;;;;;5159933;27;27836;-61
2021/07/24 10:56:59;;;;;;;11.85;7.90;;;30.80;51.10;;;;;;5170721;27;27393;-61
2021/07/24 10:59:43;;;;;;;9.35;7.38;;;30.80;51.60;;;;;;5159370;27;27386;-61
2021/07/24 11:02:45;;;;;;;10.23;8.07;;;30.60;50.30;;;;;;5190191;27;27394;-62
2021/07/24 11:05:30;;;;;;;12.77;8.13;;;30.30;51.30;;;;;;5189825;27;27521;-62
2021/07/24 11:08:15;;;;;;;10.10;6.88;;;30.00;52.30;;;;;;5174237;27;27419;-60
2021/07/24 11:11:09;;;;;;;11.63;7.60;;;29.80;53.40;;;;;;5159634;27;27472;-61
2021/07/24 11:13:53;;;;;;;10.98;7.35;;;29.60;51.90;;;;;;5170885;27;27415;-61
2021/07/24 11:17:06;;;;;;;15.57;8.20;;;29.40;53.00;;;;;;5173868;27;27965;-61
2021/07/24 11:19:51;;;;;;;9.77;6.57;;;29.10;53.20;;;;;;5189163;27;27314;-61
2021/07/24 11:22:56;;;;;;;11.45;7.55;;;28.90;53.30;;;;;;5189412;27;27372;-61
2021/07/24 11:25:42;;;;;;;11.25;7.28;;;28.70;54.10;;;;;;5159033;27;27323;-60
2021/07/24 11:28:26;;;;;;;10.48;7.32;;;28.50;53.80;;;;;;5189421;27;27393;-60
2021/07/24 11:31:11;;;;;;;11.73;7.82;;;28.30;53.80;;;;;;5189344;27;27359;-60
2021/07/24 11:33:55;;;;;;;9.60;7.40;;;28.20;53.80;;;;;;5155982;27;27358;-60
2021/07/24 11:36:40;;;;;;;8.88;7.15;;;28.10;53.70;;;;;;5159242;27;27416;-61
2021/07/24 11:39:31;;;;;;;10.15;7.22;;;28.00;55.30;;;;;;5189060;27;27380;-61
2021/07/24 11:42:20;;;;;;;14.20;8.75;;;28.00;55.40;;;;;;5189162;27;27525;-60
2021/07/24 11:45:05;;;;;;;11.23;7.70;;;28.00;55.40;;;;;;5173501;27;27410;-60
2021/07/24 11:48:15;;;;;;;11.68;8.20;;;28.00;56.20;;;;;;5189170;27;27386;-61
2021/07/24 11:51:02;;;;;;;10.18;7.93;;;28.00;54.50;;;;;;5185925;27;27901;-62
2021/07/24 11:53:50;;;;;;;11.95;7.63;;;28.20;55.40;;;;;;5173739;27;27412;-62
2021/07/24 11:56:34;;;;;;;11.15;7.55;;;28.50;55.00;;;;;;5169661;27;27340;-62
2021/07/24 11:59:19;;;;;;;13.40;7.75;;;28.70;55.20;;;;;;5173384;27;27397;-63
2021/07/24 12:02:04;;;;;;;10.68;7.20;;;28.90;56.50;;;;;;5189210;27;27851;-61
2021/07/24 12:04:52;;;;;;;12.30;7.55;;;29.20;57.40;;;;;;5188607;27;27412;-62
2021/07/24 12:07:37;;;;;;;8.77;7.72;;;29.40;56.10;;;;;;5188846;27;27339;-62
2021/07/24 12:10:22;;;;;;;13.73;8.00;;;29.60;55.10;;;;;;5173155;27;27388;-62
2021/07/24 12:13:07;;;;;;;8.13;7.15;;;29.80;53.60;;;;;;5158683;27;27969;-62
2021/07/24 12:15:59;;;;;;;9.05;7.78;;;30.00;54.80;;;;;;5172597;27;27389;-62
2021/07/24 12:18:48;;;;;;;11.25;8.02;;;30.20;54.90;;;;;;5157990;27;27333;-62
2021/07/24 12:21:33;;;;;;;10.43;7.70;;;30.30;53.60;;;;;;5188469;27;27381;-62
2021/07/24 12:24:24;;;;;;;11.10;7.28;;;30.50;53.80;;;;;;5188597;27;27389;-62
2021/07/24 12:27:22;;;;;;;11.52;8.10;;;30.60;54.80;;;;;;5188757;27;27395;-62
2021/07/24 12:30:07;;;;;;;8.93;7.10;;;30.70;54.00;;;;;;5169549;27;27406;-62
2021/07/24 12:32:52;;;;;;;14.20;7.22;;;30.70;51.20;;;;;;5188290;27;27327;-62
2021/07/24 12:35:36;;;;;;;8.70;6.38;;;30.70;49.50;;;;;;5188642;27;27380;-62
2021/07/24 12:38:26;;;;;;;9.98;7.00;;;30.50;49.90;;;;;;5172643;27;27517;-62
2021/07/24 12:41:11;;;;;;;11.55;6.68;;;30.30;50.70;;;;;;5188579;27;27381;-62
2021/07/24 12:44:06;;;;;;;15.40;6.88;;;30.20;50.40;;;;;;5187708;27;27394;-62
2021/07/24 12:47:12;;;;;;;14.82;6.70;;;30.00;52.90;;;;;;5173119;27;27498;-61
2021/07/24 12:49:57;;;;;;;12.85;6.45;;;29.90;52.80;;;;;;5172424;27;27440;-62
2021/07/24 12:52:43;;;;;;;8.43;7.03;;;29.80;53.30;;;;;;5188423;27;27484;-61
2021/07/24 12:55:28;;;;;;;11.13;6.90;;;29.70;52.80;;;;;;5172550;27;27436;-62
2021/07/24 12:58:13;;;;;;;11.25;7.72;;;29.50;51.50;;;;;;5188032;27;27979;-62
2021/07/24 13:01:09;;;;;;;11.57;7.43;;;29.40;51.90;;;;;;5171921;27;27422;-62
2021/07/24 13:03:54;;;;;;;11.77;7.43;;;29.30;51.50;;;;;;5187956;27;26949;-62
2021/07/24 13:06:39;;;;;;;10.23;7.10;;;29.30;52.30;;;;;;5186883;27;27319;-61
2021/07/24 13:09:24;;;;;;;11.05;6.53;;;29.30;51.50;;;;;;5139859;27;27852;-62
2021/07/24 13:12:08;;;;;;;16.17;8.38;;;29.30;52.90;;;;;;5187773;27;27568;-62
2021/07/24 13:14:53;;;;;;;13.07;7.70;;;29.30;53.20;;;;;;5188129;27;27339;-61
2021/07/24 13:17:38;;;;;;;10.02;7.35;;;29.30;51.20;;;;;;5172211;27;27335;-62
2021/07/24 13:20:23;;;;;;;12.20;8.25;;;29.30;52.60;;;;;;5171460;27;27444;-62
2021/07/24 13:23:08;;;;;;;10.73;7.18;;;29.30;53.30;;;;;;5187944;27;27483;-62
2021/07/24 13:26:06;;;;;;;10.68;6.40;;;29.40;52.60;;;;;;5172021;27;27430;-61
2021/07/24 13:28:51;;;;;;;13.30;7.38;;;29.50;53.60;;;;;;5187945;27;27382;-62
2021/07/24 13:31:36;;;;;;;7.53;6.55;;;29.60;53.20;;;;;;5187579;27;27395;-62
2021/07/24 13:34:21;;;;;;;10.43;6.65;;;29.60;53.20;;;;;;5187849;27;27388;-62
2021/07/24 13:37:06;;;;;;;10.07;6.45;;;29.80;53.10;;;;;;5171391;27;26982;-62
2021/07/24 13:39:51;;;;;;;10.20;6.75;;;29.80;53.70;;;;;;5171609;27;26918;-62
2021/07/24 13:42:35;;;;;;;9.05;5.95;;;29.90;53.20;;;;;;5187423;27;27323;-62
2021/07/24 13:45:20;;;;;;;10.10;6.30;;;30.00;54.10;;;;;;5171749;27;27423;-62
2021/07/24 13:48:05;;;;;;;10.23;6.20;;;30.10;54.40;;;;;;5187689;27;27396;-61
2021/07/24 13:50:50;;;;;;;11.77;6.45;;;30.20;54.80;;;;;;5187465;27;27388;-62
2021/07/24 13:53:34;;;;;;;8.57;6.43;;;30.20;55.30;;;;;;5187543;27;27855;-61
2021/07/24 13:56:18;;;;;;;8.32;6.15;;;30.30;52.40;;;;;;5171850;27;27334;-61
2021/07/24 13:59:04;;;;;;;8.65;6.10;;;30.30;54.30;;;;;;5187100;27;27389;-62
2021/07/24 14:01:51;;;;;;;10.93;6.40;;;30.30;53.80;;;;;;5187164;27;27384;-62
2021/07/24 14:04:36;;;;;;;12.98;6.50;;;30.30;54.30;;;;;;5171344;27;27395;-62
2021/07/24 14:07:21;;;;;;;10.25;5.50;;;30.30;54.20;;;;;;5153219;27;27422;-62
2021/07/24 14:10:06;;;;;;;9.18;6.22;;;30.30;54.40;;;;;;5187427;27;27444;-62
2021/07/24 14:12:51;;;;;;;9.32;5.82;;;30.30;55.00;;;;;;5187403;27;27315;-62
2021/07/24 14:15:36;;;;;;;7.03;5.80;;;30.40;54.40;;;;;;5168169;27;27323;-62